createdAt,value
2023-04-27T00:01:07.197Z,6.40
2023-04-27T00:03:39.202Z,6.50
2023-04-27T00:06:11.887Z,5.70
2023-04-27T00:08:43.708Z,6.50
2023-04-27T00:11:15.365Z,6.30
2023-04-27T00:13:47.335Z,5.90
2023-04-27T00:16:19.169Z,6.00
2023-04-27T00:18:51.167Z,5.80
2023-04-27T00:21:22.966Z,5.70
2023-04-27T00:23:55.086Z,5.60
2023-04-27T00:26:26.902Z,5.40
2023-04-27T00:28:58.885Z,5.90
2023-04-27T00:31:30.740Z,5.40
2023-04-27T00:34:02.658Z,6.50
2023-04-27T00:36:36.062Z,5.50
2023-04-27T00:39:08.040Z,5.40
2023-04-27T00:41:41.119Z,5.60
2023-04-27T00:44:12.922Z,5.70
2023-04-27T00:46:45.229Z,4.80
2023-04-27T00:49:18.716Z,5.30
2023-04-27T00:51:50.792Z,5.00
2023-04-27T00:54:23.973Z,5.70
2023-04-27T00:56:56.639Z,5.20
2023-04-27T00:59:28.380Z,5.50
2023-04-27T01:02:00.660Z,4.80
2023-04-27T01:04:33.220Z,5.70
2023-04-27T01:07:05.171Z,5.70
2023-04-27T01:09:37.039Z,5.10
2023-04-27T01:12:09.862Z,5.60
2023-04-27T01:14:41.679Z,5.30
2023-04-27T01:17:14.173Z,5.50
2023-04-27T01:19:46.239Z,5.80
2023-04-27T01:22:18.075Z,4.90
2023-04-27T01:24:52.025Z,6.00
2023-04-27T01:27:23.842Z,5.40
2023-04-27T01:29:55.910Z,5.20
2023-04-27T01:32:29.292Z,6.00
2023-04-27T01:35:01.142Z,5.50
2023-04-27T01:37:33.648Z,5.20
2023-04-27T01:40:06.716Z,5.60
2023-04-27T01:42:38.681Z,5.80
2023-04-27T01:45:14.323Z,5.50
2023-04-27T01:47:46.222Z,5.90
2023-04-27T01:50:18.016Z,6.50
2023-04-27T01:52:50.673Z,5.90
2023-04-27T01:55:22.756Z,6.10
2023-04-27T02:00:25.253Z,5.60
2023-04-27T02:05:29.657Z,5.10
2023-04-27T02:08:01.535Z,5.80
2023-04-27T02:10:33.591Z,5.10
2023-04-27T02:13:05.411Z,5.50
2023-04-27T02:15:37.373Z,5.40
2023-04-27T02:18:09.404Z,5.60
2023-04-27T02:20:41.718Z,5.20
2023-04-27T02:23:13.683Z,5.10
2023-04-27T02:25:47.514Z,5.00
2023-04-27T02:28:19.307Z,5.70
2023-04-27T02:30:51.737Z,4.70
2023-04-27T02:33:23.812Z,5.70
2023-04-27T02:35:55.840Z,4.90
2023-04-27T02:38:27.907Z,5.70
2023-04-27T02:40:59.709Z,5.10
2023-04-27T02:43:31.329Z,5.80
2023-04-27T02:46:06.301Z,5.50
2023-04-27T02:48:38.083Z,5.50
2023-04-27T02:51:10.068Z,5.60
2023-04-27T02:53:41.859Z,5.20
2023-04-27T02:56:13.623Z,5.40
2023-04-27T02:58:45.946Z,5.00
2023-04-27T03:01:18.871Z,5.70
2023-04-27T03:03:51.044Z,5.30
2023-04-27T03:08:53.309Z,4.90
2023-04-27T03:11:26.013Z,4.70
2023-04-27T03:13:57.891Z,5.20
2023-04-27T03:16:29.920Z,5.20
2023-04-27T03:21:32.813Z,5.50
2023-04-27T03:26:35.584Z,4.90
2023-04-27T03:29:09.327Z,5.20
2023-04-27T03:31:41.186Z,5.80
2023-04-27T03:34:13.130Z,5.10
2023-04-27T03:36:45.155Z,6.00
2023-04-27T03:42:33.307Z,5.90
2023-04-27T03:45:02.276Z,6.60
2023-04-27T03:47:30.877Z,6.10
2023-04-27T03:49:59.648Z,6.70
2023-04-27T03:52:28.366Z,5.90
2023-04-27T03:54:56.797Z,6.90
2023-04-27T03:57:25.595Z,6.60
2023-04-27T03:59:54.147Z,6.40
2023-04-27T04:02:23.530Z,5.70
2023-04-27T04:04:52.741Z,6.50
2023-04-27T04:07:21.630Z,6.10
2023-04-27T04:09:50.086Z,5.90
2023-04-27T04:12:18.565Z,6.20
2023-04-27T04:14:48.420Z,7.20
2023-04-27T04:17:17.040Z,6.70
2023-04-27T04:19:45.436Z,6.20
2023-04-27T04:22:14.235Z,6.10
2023-04-27T04:24:43.052Z,6.40
2023-04-27T04:27:11.739Z,6.10
2023-04-27T04:29:40.258Z,5.70
2023-04-27T04:32:09.191Z,5.70
2023-04-27T04:34:38.779Z,6.40
2023-04-27T04:37:07.327Z,5.80
2023-04-27T04:39:35.929Z,6.10
2023-04-27T04:42:04.916Z,6.50
2023-04-27T04:44:33.474Z,6.70
2023-04-27T04:47:02.316Z,6.50
2023-04-27T04:49:31.622Z,5.30
2023-04-27T04:52:00.108Z,6.00
2023-04-27T04:54:28.746Z,6.60
2023-04-27T04:56:58.417Z,6.60
2023-04-27T04:59:27.525Z,6.00
2023-04-27T05:01:56.346Z,6.50
2023-04-27T05:04:25.964Z,5.90
2023-04-27T05:06:54.415Z,6.00
2023-04-27T05:09:23.041Z,5.90
2023-04-27T05:11:51.818Z,5.90
2023-04-27T05:14:20.255Z,4.80
2023-04-27T05:16:48.889Z,4.80
2023-04-27T05:19:17.858Z,5.80
2023-04-27T05:21:48.546Z,5.10
2023-04-27T05:24:17.079Z,5.30
2023-04-27T05:26:45.655Z,5.40
2023-04-27T05:29:14.689Z,4.90
2023-04-27T05:31:43.647Z,5.20
2023-04-27T05:34:12.746Z,5.20
2023-04-27T05:36:41.527Z,4.60
2023-04-27T05:39:10.901Z,5.40
2023-04-27T05:41:39.492Z,4.70
2023-04-27T05:44:08.221Z,4.50
2023-04-27T05:46:38.729Z,5.20
2023-04-27T05:49:07.613Z,4.40
2023-04-27T05:51:37.825Z,4.50
2023-04-27T05:54:07.539Z,4.80
2023-04-27T05:56:37.244Z,4.70
2023-04-27T05:59:06.096Z,4.30
2023-04-27T06:01:34.629Z,4.00
2023-04-27T06:04:03.354Z,3.80
2023-04-27T06:06:35.049Z,3.70
2023-04-27T06:09:03.677Z,3.80
2023-04-27T06:11:32.171Z,3.80
2023-04-27T06:14:00.697Z,3.60
2023-04-27T06:16:29.256Z,3.40
2023-04-27T06:18:57.794Z,3.80
2023-04-27T06:21:26.309Z,3.90
2023-04-27T06:23:54.930Z,3.80
2023-04-27T06:26:23.475Z,3.90
2023-04-27T06:28:52.068Z,3.50
2023-04-27T06:31:20.652Z,3.60
2023-04-27T06:33:49.236Z,4.50
2023-04-27T06:36:17.705Z,3.80
2023-04-27T06:38:46.220Z,5.30
2023-04-27T06:41:14.821Z,3.80
2023-04-27T06:43:43.738Z,4.90
2023-04-27T06:46:12.258Z,3.60
2023-04-27T06:48:40.790Z,3.80
2023-04-27T06:51:09.294Z,4.20
2023-04-27T06:53:37.858Z,3.80
2023-04-27T06:56:10.149Z,4.10
2023-04-27T06:58:38.896Z,4.20
2023-04-27T07:01:07.435Z,4.30
2023-04-27T07:03:36.360Z,4.40
2023-04-27T07:06:06.864Z,4.20
2023-04-27T07:08:36.330Z,3.80
2023-04-27T07:11:05.002Z,3.70
2023-04-27T07:13:33.432Z,3.50
2023-04-27T07:16:01.985Z,3.30
2023-04-27T07:18:30.385Z,3.40
2023-04-27T07:20:58.893Z,3.70
2023-04-27T07:23:27.298Z,3.60
2023-04-27T07:25:55.995Z,3.20
2023-04-27T07:28:24.530Z,3.90
2023-04-27T07:30:53.162Z,3.30
2023-04-27T07:33:22.020Z,3.10
2023-04-27T07:35:50.864Z,3.70
2023-04-27T07:38:20.095Z,4.30
2023-04-27T07:40:49.078Z,5.10
2023-04-27T07:43:17.800Z,3.60
2023-04-27T07:45:46.339Z,2.80
2023-04-27T07:48:14.916Z,3.10
2023-04-27T07:50:43.413Z,3.30
2023-04-27T07:53:12.240Z,2.90
2023-04-27T07:55:40.832Z,2.60
2023-04-27T07:58:09.342Z,3.90
2023-04-27T08:00:37.848Z,2.90
2023-04-27T08:03:07.342Z,2.90
2023-04-27T08:05:36.158Z,2.70
2023-04-27T08:08:05.823Z,3.40
2023-04-27T08:10:34.591Z,3.20
2023-04-27T08:13:03.277Z,3.40
2023-04-27T08:15:31.804Z,3.20
2023-04-27T08:18:00.415Z,3.00
2023-04-27T08:20:30.578Z,3.30
2023-04-27T08:22:59.021Z,3.50
2023-04-27T08:25:27.485Z,3.50
2023-04-27T08:27:56.027Z,2.70
2023-04-27T08:30:25.266Z,2.90
2023-04-27T08:32:54.388Z,3.00
2023-04-27T08:35:22.830Z,2.90
2023-04-27T08:37:51.332Z,2.80
2023-04-27T08:40:20.430Z,2.90
2023-04-27T08:42:56.373Z,2.40
2023-04-27T08:45:26.145Z,3.10
2023-04-27T08:47:55.041Z,3.40
2023-04-27T08:50:26.702Z,3.30
2023-04-27T08:52:55.232Z,2.70
2023-04-27T08:55:24.063Z,3.10
2023-04-27T08:57:56.920Z,3.30
2023-04-27T09:00:38.057Z,3.60
2023-04-27T09:03:07.387Z,3.30
2023-04-27T09:05:36.230Z,3.00
2023-04-27T09:08:07.803Z,3.40
2023-04-27T09:10:46.694Z,3.00
2023-04-27T09:13:15.462Z,2.90
2023-04-27T09:15:47.082Z,3.30
2023-04-27T09:18:18.241Z,3.10
2023-04-27T09:20:47.710Z,3.20
2023-04-27T09:23:27.674Z,3.50
2023-04-27T09:25:56.964Z,3.10
2023-04-27T09:28:27.414Z,3.20
2023-04-27T09:30:57.795Z,3.00
2023-04-27T09:33:27.121Z,3.70
2023-04-27T09:35:56.376Z,3.70
2023-04-27T09:38:25.393Z,3.10
2023-04-27T09:40:54.693Z,4.10
2023-04-27T09:43:24.259Z,4.20
2023-04-27T09:45:54.428Z,3.80
2023-04-27T09:48:24.369Z,4.30
2023-04-27T09:50:53.459Z,4.10
2023-04-27T09:53:26.145Z,3.80
2023-04-27T09:56:03.984Z,4.40
2023-04-27T09:58:58.956Z,4.50
2023-04-27T10:01:37.416Z,4.00
2023-04-27T10:04:21.407Z,3.90
2023-04-27T10:06:59.088Z,3.80
2023-04-27T10:09:35.697Z,4.30
2023-04-27T10:12:16.679Z,4.00
2023-04-27T10:14:55.708Z,4.30
2023-04-27T10:17:31.477Z,3.80
2023-04-27T10:20:01.313Z,4.10
2023-04-27T10:22:40.896Z,3.80
2023-04-27T10:25:20.881Z,3.80
2023-04-27T10:27:54.043Z,3.60
2023-04-27T10:30:23.944Z,3.60
2023-04-27T10:32:54.025Z,3.30
2023-04-27T10:35:32.182Z,4.00
2023-04-27T10:38:08.102Z,3.30
2023-04-27T10:40:37.625Z,3.20
2023-04-27T10:43:11.725Z,3.40
2023-04-27T10:45:41.450Z,3.60
2023-04-27T10:48:12.804Z,3.30
2023-04-27T10:50:43.970Z,3.50
2023-04-27T10:53:12.765Z,3.20
2023-04-27T10:55:41.434Z,3.40
2023-04-27T10:58:10.350Z,2.80
2023-04-27T11:00:43.618Z,2.60
2023-04-27T11:03:15.968Z,2.60
2023-04-27T11:05:46.149Z,3.30
2023-04-27T11:08:17.178Z,2.70
2023-04-27T11:10:49.316Z,2.60
2023-04-27T11:13:19.716Z,2.70
2023-04-27T11:15:51.241Z,3.00
2023-04-27T11:18:21.672Z,2.50
2023-04-27T11:20:51.795Z,3.40
2023-04-27T11:23:28.330Z,3.40
2023-04-27T11:25:57.118Z,2.60
2023-04-27T11:28:26.202Z,2.90
2023-04-27T11:30:58.872Z,3.40
2023-04-27T11:33:27.891Z,3.20
2023-04-27T11:35:56.860Z,2.70
2023-04-27T11:38:26.842Z,3.40
2023-04-27T11:41:03.612Z,3.00
2023-04-27T11:43:32.817Z,3.70
2023-04-27T11:46:07.551Z,3.60
2023-04-27T11:48:37.913Z,3.00
2023-04-27T11:51:07.441Z,2.80
2023-04-27T11:53:37.784Z,3.50
2023-04-27T11:56:09.925Z,2.90
2023-04-27T11:58:39.871Z,3.10
2023-04-27T12:01:09.902Z,3.40
2023-04-27T12:03:38.668Z,3.40
2023-04-27T12:06:27.271Z,3.50
2023-04-27T12:08:56.876Z,3.10
2023-04-27T12:11:27.484Z,2.80
2023-04-27T12:13:56.872Z,2.70
2023-04-27T12:16:25.562Z,3.10
2023-04-27T12:18:54.349Z,3.30
2023-04-27T12:21:24.198Z,3.20
2023-04-27T12:23:52.788Z,3.20
2023-04-27T12:26:21.297Z,2.80
2023-04-27T12:28:49.801Z,2.40
2023-04-27T12:31:23.226Z,2.50
2023-04-27T12:33:53.412Z,2.70
2023-04-27T12:36:22.038Z,3.30
2023-04-27T12:38:51.097Z,3.70
2023-04-27T12:41:19.730Z,3.00
2023-04-27T12:43:48.736Z,3.20
2023-04-27T12:46:18.061Z,3.10
2023-04-27T12:48:46.845Z,2.70
2023-04-27T12:51:16.075Z,3.00
2023-04-27T12:53:44.862Z,3.10
2023-04-27T12:56:13.400Z,3.10
2023-04-27T12:58:42.251Z,2.70
2023-04-27T13:01:14.166Z,2.50
2023-04-27T13:03:43.131Z,2.30
2023-04-27T13:06:12.200Z,2.30
2023-04-27T13:08:41.448Z,2.70
2023-04-27T13:11:10.270Z,3.00
2023-04-27T13:13:39.108Z,2.90
2023-04-27T13:16:08.185Z,2.60
2023-04-27T13:18:37.264Z,2.90
2023-04-27T13:21:06.417Z,2.90
2023-04-27T13:23:35.268Z,2.40
2023-04-27T13:26:03.991Z,2.70
2023-04-27T13:28:32.878Z,2.80
2023-04-27T13:31:01.454Z,3.00
2023-04-27T13:33:32.397Z,3.90
2023-04-27T13:36:03.221Z,3.50
2023-04-27T13:38:31.700Z,3.10
2023-04-27T13:41:00.247Z,3.30
2023-04-27T13:43:29.136Z,12.00
2023-04-27T13:46:01.278Z,4.20
2023-04-27T13:48:31.297Z,3.20
2023-04-27T13:51:01.195Z,3.10
2023-04-27T13:53:29.700Z,3.00
2023-04-27T13:55:58.677Z,3.10
2023-04-27T13:58:31.701Z,3.20
2023-04-27T14:01:00.525Z,3.30
2023-04-27T14:03:29.656Z,8.60
2023-04-27T15:14:35.907Z,4.30
2023-04-27T15:17:07.909Z,3.90
2023-04-27T15:22:10.587Z,3.70
2023-04-27T15:24:42.571Z,4.10
2023-04-27T15:27:14.402Z,4.20
2023-04-27T15:29:49.104Z,4.60
2023-04-27T15:32:23.220Z,5.00
2023-04-27T15:34:55.159Z,3.70
2023-04-27T15:37:28.444Z,4.40
2023-04-27T15:40:07.669Z,3.60
2023-04-27T15:42:39.615Z,9.70
2023-04-27T15:45:12.890Z,5.20
2023-04-27T15:47:44.841Z,4.40
2023-04-27T15:50:17.986Z,4.20
2023-04-27T15:52:50.138Z,5.70
2023-04-27T15:57:53.287Z,3.90
2023-04-27T16:02:56.929Z,3.70
2023-04-27T16:05:29.615Z,4.50
2023-04-27T16:08:01.639Z,4.60
2023-04-27T16:13:04.329Z,3.80
2023-04-27T16:15:36.479Z,4.60
2023-04-27T16:18:08.491Z,4.40
2023-04-27T16:23:11.173Z,4.70
2023-04-27T16:25:43.153Z,4.20
2023-04-27T16:30:49.353Z,4.50
2023-04-27T16:33:21.798Z,9.40
2023-04-27T16:35:53.664Z,6.00
2023-04-27T16:38:25.560Z,7.30
2023-04-27T16:40:58.411Z,5.80
2023-04-27T16:43:31.424Z,7.60
2023-04-27T16:46:03.362Z,6.30
2023-04-27T16:51:06.632Z,7.90
2023-04-27T16:53:39.083Z,12.00
2023-04-27T16:56:12.220Z,17.80
2023-04-27T16:58:44.005Z,14.30
2023-04-27T17:03:46.819Z,8.30
2023-04-27T17:06:20.312Z,8.50
2023-04-27T17:08:52.071Z,7.30
2023-04-27T17:11:23.999Z,5.50
2023-04-27T17:13:55.833Z,5.00
2023-04-27T17:16:28.170Z,5.00
2023-04-27T17:19:00.288Z,5.10
2023-04-27T17:21:32.490Z,5.50
2023-04-27T17:26:35.126Z,5.40
2023-04-27T17:29:06.889Z,4.50
2023-04-27T17:31:39.030Z,5.60
2023-04-27T17:34:12.090Z,4.80
2023-04-27T17:36:44.081Z,8.70
2023-04-27T17:41:47.045Z,3.80
2023-04-27T17:46:50.852Z,3.90
2023-04-27T17:49:23.280Z,4.00
2023-04-27T17:51:55.563Z,3.70
2023-04-27T17:54:29.933Z,3.70
2023-04-27T17:57:03.018Z,4.10
2023-04-27T17:59:35.437Z,3.70
2023-04-27T18:02:07.644Z,4.00
2023-04-27T18:04:40.248Z,3.70
2023-04-27T18:07:12.654Z,3.40
